Time;durP1;ratioP1;P1;durP2;ratioP2;P2;SDS_P1;SDS_P2;PMS_P1;PMS_P2;Temp;Humidity;BMP_temperature;BMP_pressure;BME280_temperature;BME280_humidity;BME280_pressure;Samples;Min_cycle;Max_cycle;Signal;HPM_P1;HPM_P2
2023/05/21 00:00:14;;;;;;;;;11.33;9.67;;;;;19.75;80.16;101331.94;4986042;28;45612;-74
2023/05/21 00:02:39;;;;;;;;;9.33;9.00;;;;;19.72;79.96;101329.31;4985147;28;45463;-75
2023/05/21 00:05:05;;;;;;;;;10.67;10.67;;;;;19.75;80.10;101344.44;4996422;28;45638;-74
2023/05/21 00:07:32;;;;;;;;;11.33;9.67;;;;;19.73;80.32;101328.41;4993573;28;45599;-74
2023/05/21 00:09:57;;;;;;;;;13.33;10.00;;;;;19.73;80.95;101324.84;4995208;28;46051;-75
2023/05/21 00:12:22;;;;;;;;;11.00;11.00;;;;;19.70;80.62;101324.91;4996540;28;59218;-76
2023/05/21 00:14:48;;;;;;;;;9.67;9.67;;;;;19.68;81.48;101329.41;4997282;28;45537;-76
2023/05/21 00:17:13;;;;;;;;;9.33;8.67;;;;;19.68;81.04;101321.38;4995822;28;61935;-78
2023/05/21 00:19:39;;;;;;;;;12.00;9.33;;;;;19.64;81.52;101323.22;4995758;28;70965;-74
2023/05/21 00:22:04;;;;;;;;;12.00;12.00;;;;;19.61;81.83;101323.28;4996189;28;45479;-77
2023/05/21 00:24:30;;;;;;;;;14.33;12.67;;;;;19.60;82.46;101326.84;4988620;28;45384;-79
2023/05/21 00:26:55;;;;;;;;;12.67;10.00;;;;;19.58;82.28;101320.63;4997591;28;45448;-74
2023/05/21 00:29:21;;;;;;;;;13.67;11.33;;;;;19.54;82.25;101318.91;4995388;28;71291;-74
2023/05/21 00:31:46;;;;;;;;;14.67;10.67;;;;;19.51;82.91;101310.94;4992055;28;45398;-74
2023/05/21 00:34:12;;;;;;;;;13.00;12.33;;;;;19.48;83.21;101313.66;4990766;28;45338;-74
2023/05/21 00:36:39;;;;;;;;;11.33;11.33;;;;;19.44;82.85;101317.28;4988017;28;45434;-75
2023/05/21 00:39:04;;;;;;;;;16.00;13.67;;;;;19.40;83.61;101307.56;4981462;28;45800;-78
2023/05/21 00:41:30;;;;;;;;;12.00;11.00;;;;;19.36;83.77;101307.63;4991037;28;45368;-75
2023/05/21 00:43:55;;;;;;;;;16.33;13.00;;;;;19.35;83.62;101308.53;4979594;28;45383;-74
2023/05/21 00:46:21;;;;;;;;;12.67;11.67;;;;;19.34;84.41;101300.53;4984908;28;45611;-74
2023/05/21 00:48:48;;;;;;;;;11.00;11.00;;;;;19.33;84.77;101304.09;4983429;28;46711;-74
2023/05/21 00:51:14;;;;;;;;;14.67;14.33;;;;;19.29;84.88;101295.25;4979562;28;45472;-74
2023/05/21 00:53:39;;;;;;;;;14.67;13.00;;;;;19.27;84.99;101298.84;4995389;28;45443;-76
2023/05/21 00:56:05;;;;;;;;;12.00;10.67;;;;;19.24;84.49;101296.25;4987467;28;47357;-73
2023/05/21 00:58:34;;;;;;;;;15.67;13.33;;;;;19.21;84.73;101294.50;4983490;28;46409;-74
2023/05/21 01:01:05;;;;;;;;;13.00;12.00;;;;;19.19;84.66;101293.66;4978238;28;46251;-75
2023/05/21 01:03:40;;;;;;;;;16.67;14.33;;;;;19.15;84.92;101291.03;4984599;28;45493;-75
2023/05/21 01:06:08;;;;;;;;;16.00;13.67;;;;;19.11;84.63;101285.72;4986403;28;45474;-77
2023/05/21 01:08:35;;;;;;;;;18.00;15.00;;;;;19.07;84.84;101289.38;4988209;28;45463;-74
2023/05/21 01:11:01;;;;;;;;;16.67;13.33;;;;;19.05;85.31;101284.97;4986534;28;45406;-74
2023/05/21 01:13:26;;;;;;;;;17.00;14.00;;;;;19.00;85.35;101285.03;4985304;28;45267;-74
2023/05/21 01:15:52;;;;;;;;;14.67;14.00;;;;;18.98;85.94;101280.63;4988366;28;61248;-74
2023/05/21 01:18:19;;;;;;;;;14.33;13.67;;;;;18.93;86.63;101282.50;4986264;28;71904;-74
2023/05/21 01:20:47;;;;;;;;;12.67;12.67;;;;;18.91;86.45;101287.88;4983627;28;45353;-75
2023/05/21 01:23:19;;;;;;;;;13.67;12.67;;;;;18.90;87.42;101282.53;4991286;28;45350;-74
2023/05/21 01:25:45;;;;;;;;;13.67;12.33;;;;;18.87;87.86;101283.47;4982792;28;45313;-76
2023/05/21 01:28:11;;;;;;;;;18.67;16.00;;;;;18.87;87.63;101286.16;4991933;28;46123;-74
2023/05/21 01:30:37;;;;;;;;;17.67;16.00;;;;;18.86;88.85;101283.50;4976559;28;45326;-74
2023/05/21 01:33:24;;;;;;;;;16.00;15.00;;;;;18.86;88.64;101288.84;4988967;28;45315;-73
2023/05/21 01:35:55;;;;;;;;;16.00;13.00;;;;;18.82;89.29;101283.53;4991438;28;45262;-74
2023/05/21 01:38:37;;;;;;;;;17.00;15.33;;;;;18.79;88.80;101288.94;4987620;28;45692;-75
2023/05/21 01:41:06;;;;;;;;;19.33;15.67;;;;;18.78;89.65;101295.19;4979521;28;45364;-74
2023/05/21 01:43:33;;;;;;;;;17.33;16.00;;;;;18.77;89.88;101296.09;4970619;28;45437;-75
2023/05/21 01:45:59;;;;;;;;;17.75;16.50;;;;;18.76;89.90;101291.66;4978220;28;45437;-76
2023/05/21 01:48:27;;;;;;;;;19.33;16.00;;;;;18.74;90.16;101292.59;4977818;28;45501;-76
2023/05/21 01:50:54;;;;;;;;;19.33;16.00;;;;;18.77;90.78;101296.09;4975762;28;45401;-74
2023/05/21 01:53:20;;;;;;;;;17.00;16.67;;;;;18.76;90.54;101291.66;4985456;28;45438;-76
2023/05/21 01:55:45;;;;;;;;;15.67;15.00;;;;;18.76;90.62;101297.03;4982796;28;45558;-74
2023/05/21 01:58:11;;;;;;;;;24.00;19.50;;;;;18.74;90.93;101293.47;4972653;28;46883;-75
2023/05/21 02:00:38;;;;;;;;;23.25;16.00;;;;;18.73;91.40;101291.69;4986099;28;45405;-75
2023/05/21 02:03:04;;;;;;;;;20.75;18.25;;;;;18.73;91.59;101294.38;4993633;28;45699;-75
2023/05/21 02:05:29;;;;;;;;;18.50;18.50;;;;;18.70;92.06;101289.09;4985647;28;45177;-74
2023/05/21 02:07:55;;;;;;;;;18.25;18.00;;;;;18.72;91.79;101297.09;4984961;28;45666;-76
2023/05/21 02:10:21;;;;;;;;;17.00;16.33;;;;;18.72;91.89;101297.97;4983350;28;45541;-75
2023/05/21 02:12:46;;;;;;;;;21.75;17.50;;;;;18.70;92.08;101291.78;4993893;28;45510;-77
2023/05/21 02:15:13;;;;;;;;;19.50;18.00;;;;;18.69;92.51;101284.63;4990740;28;62321;-75
2023/05/21 02:17:39;;;;;;;;;18.00;17.25;;;;;18.70;93.05;101286.41;4991941;28;45715;-74
2023/05/21 02:20:11;;;;;;;;;16.00;15.67;;;;;18.71;93.32;101298.00;4987603;28;45493;-74
2023/05/21 02:22:41;;;;;;;;;16.75;15.25;;;;;18.73;93.43;101289.03;4988575;28;45468;-74
2023/05/21 02:25:08;;;;;;;;;20.75;19.00;;;;;18.73;93.24;101286.34;4992598;28;45500;-75
2023/05/21 02:27:35;;;;;;;;;17.75;16.50;;;;;18.74;93.43;101285.44;4990193;28;47126;-74
2023/05/21 02:30:03;;;;;;;;;19.67;16.33;;;;;18.75;93.32;101291.66;4977020;28;45493;-74
2023/05/21 02:32:30;;;;;;;;;24.50;20.25;;;;;18.76;93.68;101288.13;4983926;28;45361;-75
2023/05/21 02:34:57;;;;;;;;;21.00;17.00;;;;;18.76;93.78;101296.13;4977842;28;45303;-74
2023/05/21 02:37:22;;;;;;;;;18.00;18.00;;;;;18.74;93.89;101289.91;4987498;28;46601;-74
2023/05/21 02:39:48;;;;;;;;;19.00;18.00;;;;;18.73;94.65;101293.50;4985837;28;45450;-75
2023/05/21 02:42:13;;;;;;;;;21.33;16.33;;;;;18.72;94.36;101300.66;4986622;28;64933;-78
2023/05/21 02:44:39;;;;;;;;;18.33;16.00;;;;;18.69;94.08;101298.00;4983901;28;45931;-75
2023/05/21 02:47:05;;;;;;;;;19.33;17.67;;;;;18.66;93.54;101295.34;4984291;28;46411;-76
2023/05/21 02:49:30;;;;;;;;;26.00;20.00;;;;;18.62;93.83;101298.97;4994802;28;45452;-74
2023/05/21 02:51:55;;;;;;;;;23.25;20.25;;;;;18.61;94.57;101296.34;4986855;28;45460;-77
2023/05/21 02:54:21;;;;;;;;;16.00;16.00;;;;;18.57;94.71;101299.03;4989023;28;63172;-74
2023/05/21 02:56:46;;;;;;;;;19.00;18.00;;;;;18.56;95.11;101296.41;4983240;28;63846;-75
2023/05/21 02:59:11;;;;;;;;;19.00;17.00;;;;;18.55;95.07;101284.81;4987289;28;45313;-77
2023/05/21 03:01:37;;;;;;;;;20.75;19.50;;;;;18.53;95.48;101283.94;4985904;28;60400;-77
2023/05/21 03:04:02;;;;;;;;;21.25;18.75;;;;;18.53;95.73;101291.06;4987208;28;45195;-76
2023/05/21 03:06:30;;;;;;;;;22.50;19.75;;;;;18.50;95.69;101289.34;4993064;28;46968;-77
2023/05/21 03:08:56;;;;;;;;;20.25;19.00;;;;;18.46;95.93;101287.63;4989482;28;45310;-73
2023/05/21 03:11:21;;;;;;;;;18.25;18.00;;;;;18.44;96.28;101292.13;4985470;28;62943;-75
2023/05/21 03:13:46;;;;;;;;;21.50;19.00;;;;;18.44;96.23;101293.91;4991269;28;61636;-75
2023/05/21 03:16:12;;;;;;;;;20.25;18.25;;;;;18.42;96.16;101290.34;4990995;28;65033;-75
2023/05/21 03:18:38;;;;;;;;;21.75;18.75;;;;;18.41;96.84;101293.94;4994320;28;45413;-75
2023/05/21 03:21:04;;;;;;;;;22.00;18.75;;;;;18.41;96.35;101302.84;4988106;28;45347;-75
2023/05/21 03:23:30;;;;;;;;;19.75;17.25;;;;;18.39;96.48;101312.69;4993938;28;45480;-74
2023/05/21 03:25:56;;;;;;;;;15.25;15.00;;;;;18.38;97.31;101307.38;4988630;28;46683;-74
2023/05/21 03:28:22;;;;;;;;;17.00;14.50;;;;;18.35;97.50;101300.25;4985600;28;45432;-75
2023/05/21 03:30:48;;;;;;;;;16.75;15.50;;;;;18.35;97.94;101304.72;4989232;28;45376;-73
2023/05/21 03:33:15;;;;;;;;;18.00;15.33;;;;;18.31;97.49;101298.50;4992853;28;45243;-76
2023/05/21 03:35:40;;;;;;;;;18.00;16.33;;;;;18.30;97.76;101307.44;4995508;28;45322;-75
2023/05/21 03:38:05;;;;;;;;;21.75;18.25;;;;;18.28;97.99;101298.56;4996346;28;48946;-75
2023/05/21 03:40:31;;;;;;;;;21.50;18.50;;;;;18.25;97.51;101309.28;4995883;28;60564;-74
2023/05/21 03:42:56;;;;;;;;;19.25;19.25;;;;;18.21;97.26;101308.44;4994900;28;62860;-74
2023/05/21 03:45:21;;;;;;;;;19.00;16.50;;;;;18.17;97.18;101303.19;4989107;28;45623;-74
2023/05/21 03:47:48;;;;;;;;;18.00;15.25;;;;;18.14;97.97;101314.78;4987278;28;46079;-74
2023/05/21 03:50:13;;;;;;;;;22.50;16.50;;;;;18.11;98.64;101314.84;4989942;28;45361;-73
2023/05/21 03:52:38;;;;;;;;;23.25;20.50;;;;;18.09;99.21;101311.28;4997894;28;45476;-74
2023/05/21 03:55:05;;;;;;;;;17.25;17.25;;;;;18.12;99.39;101318.38;4994063;28;68132;-77
2023/05/21 03:57:30;;;;;;;;;18.75;17.25;;;;;18.12;100.00;101313.94;4996877;28;47100;-75
2023/05/21 03:59:57;;;;;;;;;20.00;18.75;;;;;18.13;100.00;101326.38;4992892;28;56434;-74
2023/05/21 04:02:25;;;;;;;;;22.25;17.75;;;;;18.12;100.00;101321.06;4992674;28;46226;-74
2023/05/21 04:04:52;;;;;;;;;20.50;19.25;;;;;18.10;100.00;101322.84;4992261;28;47387;-73
2023/05/21 04:07:21;;;;;;;;;19.75;18.00;;;;;18.11;100.00;101322.84;4987984;28;45483;-74
2023/05/21 04:09:46;;;;;;;;;22.00;19.50;;;;;18.09;100.00;101329.09;4991049;28;45436;-75
2023/05/21 04:12:12;;;;;;;;;24.00;22.00;;;;;18.08;100.00;101333.56;4989783;28;45321;-73
2023/05/21 04:14:37;;;;;;;;;21.75;18.50;;;;;18.05;100.00;101331.78;4985651;28;45622;-76
2023/05/21 04:17:06;;;;;;;;;24.25;18.75;;;;;18.04;100.00;101337.16;4987889;28;45321;-75
2023/05/21 04:19:31;;;;;;;;;24.50;20.75;;;;;18.02;100.00;101334.53;4991257;28;45368;-77
2023/05/21 04:21:57;;;;;;;;;23.25;18.25;;;;;18.00;100.00;101332.75;4986851;28;45471;-76
2023/05/21 04:24:23;;;;;;;;;21.25;19.25;;;;;18.00;100.00;101340.78;4997558;28;54595;-74
2023/05/21 04:26:48;;;;;;;;;19.50;19.50;;;;;17.99;100.00;101344.34;4996922;28;45364;-75
2023/05/21 04:29:16;;;;;;;;;20.75;19.50;;;;;17.97;100.00;101341.72;4996990;28;45226;-75
2023/05/21 04:31:42;;;;;;;;;21.00;20.00;;;;;17.95;100.00;101346.19;4993080;28;45623;-75
2023/05/21 04:34:07;;;;;;;;;20.00;19.75;;;;;17.95;100.00;101342.59;4992518;28;45914;-76
2023/05/21 04:36:33;;;;;;;;;21.75;17.75;;;;;17.92;100.00;101338.19;4993604;28;54875;-77
2023/05/21 04:38:58;;;;;;;;;23.25;20.50;;;;;17.90;100.00;101341.81;4994905;28;45290;-74
2023/05/21 04:41:24;;;;;;;;;25.00;22.00;;;;;17.90;100.00;101348.03;4996444;28;45495;-75
2023/05/21 04:43:53;;;;;;;;;21.00;19.25;;;;;17.91;100.00;101354.25;4993881;28;46423;-76
2023/05/21 04:46:24;;;;;;;;;23.25;20.25;;;;;17.92;100.00;101348.00;4987331;28;45249;-75
2023/05/21 04:48:55;;;;;;;;;19.75;19.50;;;;;17.95;100.00;101346.19;4995284;28;45377;-75
2023/05/21 04:51:23;;;;;;;;;21.75;21.00;;;;;17.96;100.00;101352.41;4986959;28;45534;-73
2023/05/21 04:53:48;;;;;;;;;22.25;20.75;;;;;17.98;100.00;101348.81;4981402;28;45604;-74
2023/05/21 04:56:16;;;;;;;;;27.75;24.50;;;;;17.98;100.00;101337.25;4991883;28;45672;-75
2023/05/21 04:58:41;;;;;;;;;23.75;22.00;;;;;18.02;100.00;101344.34;4996183;28;45481;-75
2023/05/21 05:01:07;;;;;;;;;20.00;18.25;;;;;18.00;100.00;101352.38;4993954;28;45575;-75
2023/05/21 05:03:33;;;;;;;;;25.75;22.50;;;;;18.00;100.00;101348.78;4996025;28;46591;-75
2023/05/21 05:05:58;;;;;;;;;27.25;22.75;;;;;18.01;100.00;101348.78;4994035;28;45500;-76
2023/05/21 05:08:23;;;;;;;;;26.25;23.25;;;;;18.04;100.00;101347.84;4997110;28;45436;-74
2023/05/21 05:10:49;;;;;;;;;22.00;21.50;;;;;18.06;100.00;101341.63;4994019;28;60046;-75
2023/05/21 05:13:14;;;;;;;;;20.50;19.50;;;;;18.09;100.00;101339.78;4993128;28;66836;-77
2023/05/21 05:15:40;;;;;;;;;25.00;21.50;;;;;18.13;100.00;101345.09;4988450;28;45510;-75
2023/05/21 05:18:07;;;;;;;;;22.00;21.50;;;;;18.14;100.00;101336.16;4992063;28;45200;-77
2023/05/21 05:20:32;;;;;;;;;14.75;13.50;;;;;18.17;100.00;101341.47;4985150;28;45394;-75
2023/05/21 05:22:58;;;;;;;;;26.75;24.25;;;;;18.18;100.00;101342.38;4983949;28;46576;-74
2023/05/21 05:25:23;;;;;;;;;19.25;19.25;;;;;18.21;100.00;101350.31;4990378;28;45311;-76
2023/05/21 05:27:49;;;;;;;;;27.50;24.25;;;;;18.20;100.00;101344.09;4988804;28;45521;-74
2023/05/21 05:30:14;;;;;;;;;29.25;21.75;;;;;18.22;100.00;101346.78;4982084;28;45296;-75
2023/05/21 05:32:39;;;;;;;;;25.00;22.25;;;;;18.20;100.00;101349.44;4978731;28;51608;-76
2023/05/21 05:35:06;;;;;;;;;26.25;24.75;;;;;18.21;100.00;101353.00;4972883;28;45224;-75
2023/05/21 05:37:32;;;;;;;;;20.50;19.75;;;;;18.20;100.00;101348.56;4988049;28;45600;-74
2023/05/21 05:39:57;;;;;;;;;26.25;20.75;;;;;18.22;100.00;101350.34;4977090;28;45540;-74
2023/05/21 05:42:23;;;;;;;;;23.00;20.00;;;;;18.24;100.00;101350.31;4981507;28;46025;-75
2023/05/21 05:44:48;;;;;;;;;23.75;22.25;;;;;18.25;100.00;101350.28;4977865;28;67129;-76
2023/05/21 05:47:13;;;;;;;;;20.75;19.75;;;;;18.24;100.00;101351.19;4983557;28;47637;-74
2023/05/21 05:49:39;;;;;;;;;21.75;21.25;;;;;18.26;100.00;101349.38;4985308;28;61507;-75
2023/05/21 05:52:05;;;;;;;;;19.50;19.00;;;;;18.28;100.00;101346.69;4986306;28;46440;-75
2023/05/21 05:54:30;;;;;;;;;24.00;21.25;;;;;18.28;100.00;101344.03;4987248;28;45184;-73
2023/05/21 05:56:56;;;;;;;;;27.75;23.25;;;;;18.31;100.00;101354.66;4986148;28;45395;-75
2023/05/21 05:59:21;;;;;;;;;25.00;24.00;;;;;18.31;100.00;101358.22;4983418;28;58744;-77
2023/05/21 06:01:46;;;;;;;;;28.50;26.00;;;;;18.32;100.00;101352.00;4991714;28;66636;-75
2023/05/21 06:04:12;;;;;;;;;24.75;23.00;;;;;18.32;100.00;101348.41;4992465;28;45353;-78
2023/05/21 06:06:37;;;;;;;;;21.25;18.00;;;;;18.35;100.00;101350.16;4989788;28;63801;-75
2023/05/21 06:09:03;;;;;;;;;24.50;22.50;;;;;18.35;100.00;101363.53;4989433;28;45530;-75
2023/05/21 06:11:28;;;;;;;;;27.00;23.25;;;;;18.35;100.00;101361.75;4995012;28;70841;-75
2023/05/21 06:13:53;;;;;;;;;28.00;22.50;;;;;18.37;100.00;101362.59;4983973;28;46708;-75
2023/05/21 06:16:19;;;;;;;;;23.25;23.25;;;;;18.37;100.00;101361.72;4986430;28;45543;-77
2023/05/21 06:18:44;;;;;;;;;26.00;23.75;;;;;18.38;100.00;101347.47;4987029;28;62399;-78
2023/05/21 06:21:09;;;;;;;;;24.25;22.25;;;;;18.39;100.00;101355.47;4987659;28;68114;-77
2023/05/21 06:23:36;;;;;;;;;26.00;21.00;;;;;18.42;100.00;101358.06;4983083;28;45381;-75
2023/05/21 06:26:02;;;;;;;;;22.75;21.00;;;;;18.43;100.00;101356.28;4984046;28;45338;-76
2023/05/21 06:28:27;;;;;;;;;20.75;18.75;;;;;18.45;100.00;101358.06;4978873;28;45548;-77
2023/05/21 06:30:53;;;;;;;;;26.75;22.25;;;;;18.47;100.00;101347.31;4988307;28;71393;-79
2023/05/21 06:33:18;;;;;;;;;30.75;24.50;;;;;18.46;100.00;101351.78;4980095;28;45457;-77
2023/05/21 06:35:43;;;;;;;;;25.50;23.25;;;;;18.49;100.00;101353.56;4988168;28;62894;-76
2023/05/21 06:38:09;;;;;;;;;29.50;23.00;;;;;18.52;100.00;101354.38;4994482;28;45455;-78
2023/05/21 06:40:35;;;;;;;;;18.00;18.00;;;;;18.59;100.00;101355.22;4989698;28;51723;-79
2023/05/21 06:43:00;;;;;;;;;29.25;22.75;;;;;18.64;100.00;101356.00;4989062;28;45143;-78
2023/05/21 06:45:25;;;;;;;;;21.25;19.00;;;;;18.71;100.00;101351.50;4986482;28;63426;-77
2023/05/21 06:47:51;;;;;;;;;21.25;20.50;;;;;18.80;100.00;101346.91;4986748;28;55393;-76
2023/05/21 06:50:16;;;;;;;;;17.67;17.67;;;;;18.89;100.00;101353.00;4989544;28;65166;-77
2023/05/21 06:52:41;;;;;;;;;22.75;22.00;;;;;18.96;100.00;101352.91;4991391;28;45329;-79
2023/05/21 06:55:07;;;;;;;;;26.50;20.25;;;;;19.05;100.00;101354.53;4987064;28;57367;-77
2023/05/21 06:57:32;;;;;;;;;28.00;21.00;;;;;19.15;100.00;101349.94;4985853;28;46002;-77
2023/05/21 06:59:58;;;;;;;;;21.00;21.00;;;;;19.22;100.00;101341.75;4993326;28;68167;-77
2023/05/21 07:02:23;;;;;;;;;24.25;22.75;;;;;19.31;100.00;101352.34;4992438;28;69456;-76
2023/05/21 07:04:49;;;;;;;;;25.75;21.50;;;;;19.37;100.00;101348.66;4990334;28;61710;-77
2023/05/21 07:07:14;;;;;;;;;22.00;22.00;;;;;19.48;100.00;101346.69;4980499;28;45472;-77
2023/05/21 07:09:39;;;;;;;;;22.50;20.00;;;;;19.56;100.00;101349.25;4990612;28;67360;-77
2023/05/21 07:12:05;;;;;;;;;18.67;18.67;;;;;19.62;100.00;101354.53;4995587;28;45518;-77
2023/05/21 07:14:30;;;;;;;;;21.33;18.67;;;;;19.63;100.00;101356.28;4996989;28;45513;-77
2023/05/21 07:16:56;;;;;;;;;21.67;18.67;;;;;19.64;100.00;101347.31;4992402;28;45545;-77
2023/05/21 07:19:21;;;;;;;;;16.67;14.33;;;;;19.65;100.00;101345.53;4994106;28;66526;-77
2023/05/21 07:21:47;;;;;;;;;24.67;20.67;;;;;19.63;100.00;101357.16;4995505;28;45567;-77
2023/05/21 07:24:13;;;;;;;;;20.00;18.67;;;;;19.59;100.00;101355.44;4990827;28;45472;-77
2023/05/21 07:26:39;;;;;;;;;21.33;21.33;;;;;19.59;100.00;101357.25;4993378;28;45308;-76
2023/05/21 07:29:04;;;;;;;;;18.33;18.00;;;;;19.57;100.00;101354.56;4991460;28;46584;-77
2023/05/21 07:31:29;;;;;;;;;22.67;18.00;;;;;19.59;100.00;101346.53;4987017;28;45530;-77
2023/05/21 07:33:55;;;;;;;;;20.00;19.33;;;;;19.60;100.00;101351.88;4972327;28;60728;-77
2023/05/21 07:36:20;;;;;;;;;20.00;17.00;;;;;19.60;100.00;101362.59;4988040;28;45734;-76
2023/05/21 07:38:45;;;;;;;;;25.50;22.25;;;;;19.55;100.00;101360.88;4992734;28;45516;-77
2023/05/21 07:41:11;;;;;;;;;24.33;21.33;;;;;19.50;100.00;101344.88;4994815;28;45444;-79
2023/05/21 07:43:37;;;;;;;;;24.00;21.75;;;;;19.48;100.00;101344.00;4994785;28;45424;-75
2023/05/21 07:46:02;;;;;;;;;17.67;17.67;;;;;19.48;100.00;101344.00;4997538;28;45399;-75
2023/05/21 07:48:28;;;;;;;;;22.67;21.00;;;;;19.48;100.00;101351.16;4989848;28;45657;-77
2023/05/21 07:50:53;;;;;;;;;21.00;18.00;;;;;19.49;100.00;101342.22;4990743;28;45388;-77
2023/05/21 07:53:19;;;;;;;;;25.33;23.33;;;;;19.54;100.00;101351.03;4992918;28;45664;-75
2023/05/21 07:55:48;;;;;;;;;27.00;19.00;;;;;19.60;100.00;101343.84;4993583;28;56012;-78
2023/05/21 07:58:18;;;;;;;;;20.67;18.33;;;;;19.65;100.00;101359.81;4997851;28;46533;-76
2023/05/21 08:00:46;;;;;;;;;18.67;18.00;;;;;19.69;100.00;101345.44;4986088;28;45457;-76
2023/05/21 08:03:15;;;;;;;;;18.67;15.00;;;;;19.72;100.00;101350.75;4991932;28;45418;-76
2023/05/21 08:05:41;;;;;;;;;19.67;16.33;;;;;19.75;100.00;101353.38;4995223;28;45667;-77
2023/05/21 08:08:06;;;;;;;;;16.33;15.00;;;;;19.76;99.14;101355.16;4986913;28;46736;-77
2023/05/21 08:10:32;;;;;;;;;16.33;16.33;;;;;19.79;100.00;101351.53;4966371;28;45986;-77
2023/05/21 08:12:57;;;;;;;;;17.67;15.67;;;;;19.83;99.18;101347.88;4981912;28;45528;-77
2023/05/21 08:15:22;;;;;;;;;16.00;14.33;;;;;19.85;100.00;101341.56;4981572;28;45294;-77
2023/05/21 08:17:48;;;;;;;;;14.33;14.33;;;;;19.93;99.54;101343.25;4984272;28;56168;-77
2023/05/21 08:20:14;;;;;;;;;15.33;13.67;;;;;19.95;99.78;101342.28;4982411;28;65625;-78
2023/05/21 08:22:40;;;;;;;;;19.67;16.67;;;;;19.98;99.57;101330.63;4990902;28;45531;-76
2023/05/21 08:25:06;;;;;;;;;15.33;14.00;;;;;20.03;99.27;101336.78;4983235;28;45489;-76
2023/05/21 08:27:31;;;;;;;;;12.67;12.67;;;;;20.01;99.23;101323.38;4986418;28;45609;-78
2023/05/21 08:29:57;;;;;;;;;13.67;13.00;;;;;20.04;98.98;101334.06;4989160;28;50552;-78
2023/05/21 08:32:22;;;;;;;;;13.67;11.00;;;;;20.07;98.43;101330.41;4989639;28;49803;-78
2023/05/21 08:34:47;;;;;;;;;12.00;9.33;;;;;20.09;98.06;101328.63;4983576;28;59310;-78
2023/05/21 08:37:13;;;;;;;;;12.67;9.67;;;;;20.10;97.49;101315.16;4987350;28;52220;-77
2023/05/21 08:39:38;;;;;;;;;14.33;11.67;;;;;20.12;97.72;101323.16;4996366;28;45488;-77
2023/05/21 08:42:10;;;;;;;;;14.33;13.67;;;;;20.14;96.90;101324.03;4993663;28;62834;-79
2023/05/21 08:44:36;;;;;;;;;14.33;13.00;;;;;20.15;96.87;101323.13;4999358;28;45466;-80
2023/05/21 08:47:06;;;;;;;;;13.33;12.33;;;;;20.17;96.15;101332.00;4988300;28;46153;-81
2023/05/21 08:49:33;;;;;;;;;9.33;8.00;;;;;20.20;96.54;101321.22;4988764;28;45568;-78
2023/05/21 08:51:59;;;;;;;;;11.67;9.33;;;;;20.24;95.79;101325.63;4989885;28;45385;-77
2023/05/21 08:54:24;;;;;;;;;8.67;8.67;;;;;20.28;95.20;101326.41;4989474;28;58461;-80
2023/05/21 08:56:51;;;;;;;;;12.33;12.33;;;;;20.31;95.24;101327.25;4986985;28;69340;-76
2023/05/21 08:59:17;;;;;;;;;12.00;12.00;;;;;20.38;95.60;101326.19;4995184;28;63877;-77
2023/05/21 09:01:44;;;;;;;;;8.00;8.00;;;;;20.43;95.13;101318.03;4984298;28;61164;-78
2023/05/21 09:04:15;;;;;;;;;10.67;9.00;;;;;20.47;95.39;101319.78;4976526;28;45482;-78
2023/05/21 09:06:40;;;;;;;;;11.67;10.33;;;;;20.53;94.37;101327.69;4993370;28;46943;-78
2023/05/21 09:09:14;;;;;;;;;9.33;8.33;;;;;20.56;94.10;101324.94;4993685;28;46541;-78
2023/05/21 09:11:41;;;;;;;;;14.00;10.67;;;;;20.62;94.34;101315.88;4992828;28;45387;-77
2023/05/21 09:14:06;;;;;;;;;12.00;9.67;;;;;20.65;93.88;101313.09;4995121;28;45571;-79
2023/05/21 09:16:31;;;;;;;;;13.00;10.00;;;;;20.67;94.58;101316.66;4979160;28;68203;-77
2023/05/21 09:18:57;;;;;;;;;15.33;12.00;;;;;20.71;94.33;101317.44;4986592;28;66641;-74
2023/05/21 09:21:27;;;;;;;;;10.00;10.00;;;;;20.70;93.64;101311.19;4992899;28;64486;-74
2023/05/21 09:23:56;;;;;;;;;11.67;9.00;;;;;20.74;94.04;101312.91;4984946;28;45417;-74
2023/05/21 09:26:23;;;;;;;;;13.67;12.67;;;;;20.76;94.62;101313.75;4989918;28;46457;-76
2023/05/21 09:28:49;;;;;;;;;7.67;7.67;;;;;20.79;95.21;101315.47;4985679;28;45454;-76
2023/05/21 09:31:14;;;;;;;;;12.00;10.00;;;;;20.83;95.06;101314.50;4999942;28;45464;-79
2023/05/21 09:33:46;;;;;;;;;10.67;10.67;;;;;20.87;95.98;101311.69;4998984;28;46031;-76
2023/05/21 09:36:11;;;;;;;;;10.00;10.00;;;;;20.95;95.51;101305.25;5000366;28;47560;-76
2023/05/21 09:38:37;;;;;;;;;13.67;10.67;;;;;20.99;95.17;101312.34;4997710;28;45312;-77
2023/05/21 09:41:05;;;;;;;;;16.33;11.00;;;;;21.08;93.91;101312.97;4993807;28;45554;-76
2023/05/21 09:43:31;;;;;;;;;13.00;13.00;;;;;21.07;92.16;101311.19;4992471;28;65748;-76
2023/05/21 09:45:56;;;;;;;;;11.67;10.00;;;;;21.11;94.00;101312.00;5000706;28;47618;-76
2023/05/21 09:48:36;;;;;;;;;16.67;13.67;;;;;21.16;93.72;101318.16;5000490;28;45456;-77
2023/05/21 09:51:11;;;;;;;;;11.67;11.00;;;;;21.21;93.52;101316.25;4996676;28;45509;-73
2023/05/21 09:53:42;;;;;;;;;14.00;14.00;;;;;21.23;92.84;101313.50;5002746;28;45533;-74
2023/05/21 09:56:08;;;;;;;;;12.33;8.67;;;;;21.25;93.66;101315.22;5002887;28;46710;-75
2023/05/21 09:58:33;;;;;;;;;13.00;11.33;;;;;21.32;93.12;101303.44;5001660;28;45437;-75
2023/05/21 10:00:58;;;;;;;;;15.33;13.67;;;;;21.40;93.54;101295.16;5003048;28;56043;-75
2023/05/21 10:03:27;;;;;;;;;15.00;13.67;;;;;21.50;93.15;101301.19;5005957;28;58666;-76
2023/05/21 10:05:52;;;;;;;;;15.67;15.00;;;;;21.57;92.30;101292.94;5000304;28;46692;-76
2023/05/21 10:08:21;;;;;;;;;11.67;11.00;;;;;21.66;92.45;101297.16;5001198;28;45425;-75
2023/05/21 10:10:48;;;;;;;;;15.67;13.67;;;;;21.77;92.54;101295.06;4981785;28;45522;-77
2023/05/21 10:13:14;;;;;;;;;16.00;11.00;;;;;21.89;92.18;101301.88;4999715;28;65959;-78
2023/05/21 10:15:47;;;;;;;;;11.00;10.00;;;;;22.00;92.22;101296.19;4971699;28;47597;-77
2023/05/21 10:18:13;;;;;;;;;13.00;11.33;;;;;22.06;91.31;101290.69;4984378;28;45382;-75
2023/05/21 10:20:38;;;;;;;;;13.67;12.67;;;;;22.11;90.77;101292.34;4968670;28;64370;-78
2023/05/21 10:23:04;;;;;;;;;15.67;15.67;;;;;22.20;90.20;101280.41;4969575;28;45647;-76
2023/05/21 10:25:32;;;;;;;;;16.00;15.33;;;;;22.22;89.29;101274.06;4971124;28;58470;-76
2023/05/21 10:27:57;;;;;;;;;16.33;16.00;;;;;22.33;89.65;101279.13;4972849;28;45468;-81
2023/05/21 10:30:23;;;;;;;;;16.00;15.67;;;;;22.41;89.42;101287.81;4983897;28;60874;-76
2023/05/21 10:32:49;;;;;;;;;18.33;15.33;;;;;22.50;89.06;101286.66;4973956;28;45691;-79
2023/05/21 10:35:15;;;;;;;;;38.75;34.75;;;;;22.62;88.52;101282.69;4972129;28;46171;-77
2023/05/21 10:37:42;;;;;;;;;44.25;36.25;;;;;22.77;87.96;101274.13;4969338;28;45431;-79
2023/05/21 10:40:08;;;;;;;;;33.67;27.67;;;;;22.90;87.32;101278.19;4987790;28;45298;-78
2023/05/21 10:42:33;;;;;;;;;49.25;36.75;;;;;23.01;86.98;101275.19;4973832;28;45663;-76
2023/05/21 10:45:17;;;;;;;;;101.67;81.00;;;;;23.09;86.95;101291.97;4976362;28;47468;-78
2023/05/21 10:47:57;;;;;;;;;23.00;19.33;;;;;23.14;85.93;101283.72;4975895;28;45427;-76
2023/05/21 10:50:31;;;;;;;;;19.00;17.67;;;;;23.15;85.60;101272.88;4993139;28;45499;-76
2023/05/21 10:53:18;;;;;;;;;26.67;25.00;;;;;23.15;85.45;101274.69;4978083;28;45485;-75
2023/05/21 10:55:53;;;;;;;;;46.75;36.75;;;;;23.11;85.20;101275.72;4981732;28;46704;-76
2023/05/21 10:58:42;;;;;;;;;18.00;16.00;;;;;23.02;84.56;101263.47;4985565;28;45489;-75
2023/05/21 11:01:09;;;;;;;;;17.67;15.33;;;;;22.98;84.45;101269.88;4986984;28;45455;-75
2023/05/21 11:03:35;;;;;;;;;23.33;19.33;;;;;22.96;84.40;101271.75;4995891;28;45606;-76